KICT/ICT METAR and TAF weather

Enter ICAO airport designator
Station Type Date Time Source
KICT METAR 2021/09/16 09:53 UTC NOAA

KICT 160953Z 16005KT 10SM FEW250 19/17 A2993 RMK AO2 SLP123 T01890167


Station Type Date Time Source
KICT Decoded METAR 2021/09/16 09:53 UTC NOAA

WICHITA MID-CONTINENT AIRPORT , KS, United States (KICT) 37-39N 97-26W 408M
Sep 16, 2021 - 05:53 AM EDT / 2021.09.16 0953 UTC
Wind: from the SSE (160 degrees) at 6 MPH (5 KT):0
Visibility: 10 mile(s):0
Sky conditions: mostly clear
Temperature: 66.0 F (18.9 C)
Dew Point: 62.1 F (16.7 C)
Relative Humidity: 87%
Pressure (altimeter): 29.93 in. Hg (1013 hPa)
ob: KICT 160953Z 16005KT 10SM FEW250 19/17 A2993 RMK AO2 SLP123 T01890167
cycle: 10

Station Type Date Time Source
KICT TAF 2021/09/16 06:22 UTC NOAA

TAF KICT 160520Z 1606/1706 15010KT P6SM FEW250
FM161600 18010G20KT P6SM FEW050
FM162300 16010KT P6SM FEW060

Example: see airport list